Flight Track Log - Related Links

Times and Time Zones

All times are in EDT time to prevent confusion due to time zone crossing. See the GJS3649 flight status page for this flight to view local times or setup timezone preferences in your user account.

Time Position Orientation Groundspeed Altitude Reporting Facility
EDT Latitude Longitude Course Direction KTS MPH feet Rate Location/Type
Sat 09:01:57 AM 41.9667 -87.8833 346° North 159 183 1,600  Level Chicago TRACON
Sat 09:02:51 AM 41.9667 -87.8167 90° East 205 236 3,300 1,366 Climbing Chicago TRACON
Sat 09:05:00 AM 42.3386 -88.0138 350° North  Level FlightAware Approximate
Sat 09:05:19 AM 41.9669 -87.5836 90° East 282 325 6,200  Level Chicago Center
Sat 09:06:00 AM 42.4296 -88.0526 352° North  Level FlightAware Approximate
Sat 09:06:21 AM 42.0228 -87.5253 38° Northeast 273 314 8,900  Level Chicago Center
Sat 09:07:00 AM 42.5205 -88.0846 346° North  Level FlightAware Approximate
Sat 09:07:22 AM 42.0908 -87.5717 333° Northwest 275 316 11,600  Level Chicago Center
Sat 09:08:24 AM 42.1519 -87.6442 319° Northwest 304 350 13,900 1,645 Climbing Chicago Center
Sat 09:09:26 AM 42.2408 -87.6883 340° North 316 364 15,000 1,268 Climbing Chicago Center
Sat 09:10:27 AM 42.3239 -87.6917 358° North 303 349 16,500 1,707 Climbing Chicago Center
Sat 09:11:29 AM 42.4072 -87.7147 348° North 318 366 18,500 2,049 Climbing Chicago Center
Sat 09:12:30 AM 42.4842 -87.7767 329° Northwest 314 361 20,700 1,561 Climbing Chicago Center
Sat 09:13:32 AM 42.5653 -87.8406 330° Northwest 337 388 21,700 1,122 Climbing Chicago Center
Sat 09:14:33 AM 42.6533 -87.9086 330° Northwest 357 411 23,000 1,317 Climbing Chicago Center
Sat 09:15:35 AM 42.7436 -87.9822 329° Northwest 373 429 24,400 1,395 Climbing Chicago Center
Sat 09:17:00 AM 42.8570 -88.0733 330° Northwest  Level FlightAware Approximate
Sat 09:17:38 AM 42.9478 -88.1461 330° Northwest 395 455 27,300  Level Chicago Center
Sat 09:18:40 AM 43.0431 -88.2275 328° Northwest 402 463 28,600 1,220 Climbing Chicago Center
Sat 09:19:41 AM 43.1339 -88.3147 325° Northwest 399 459 29,800 1,073 Climbing Chicago Center
Sat 09:20:43 AM 43.2058 -88.4392 308° West 411 473 30,800 919 Climbing Chicago Center
Sat 09:21:45 AM 43.2789 -88.5658 308° West 418 481 31,700 585 Climbing Chicago Center
Sat 09:22:46 AM 43.3542 -88.6950 309° West 422 486 32,000 146 Climbing Chicago Center
Sat 09:23:48 AM 43.4264 -88.8186 309° West 411 473 32,000  Level Chicago Center
Sat 09:24:50 AM 43.4967 -88.9383 309° West 402 463 32,000  Level Chicago Center
Sat 09:25:51 AM 43.5653 -89.0578 308° West 396 456 32,000  Level Chicago Center
Sat 09:26:53 AM 43.6336 -89.1778 308° West 397 457 32,000  Level Chicago Center
Sat 09:27:55 AM 43.7156 -89.3211 308° West 405 466 32,000  Level Chicago Center
Sat 09:28:57 AM 43.7850 -89.4433 308° West 405 466 32,000  Level Chicago Center
Sat 09:29:59 AM 43.8539 -89.5656 308° West 403 464 32,000  Level Chicago Center
Sat 09:31:00 AM 43.9203 -89.6886 307° West 399 459 32,000  Level Chicago Center
Sat 09:32:02 AM 43.9783 -89.8194 302° West 399 459 32,000  Level Chicago Center
Sat 09:33:04 AM 44.0392 -89.9508 303° West 401 461 32,000  Level Chicago Center
Sat 09:34:06 AM 44.1069 -90.1042 302° West 400 460 32,000  Level Chicago Center
Sat 09:34:36 AM 44.1258 -90.1483 301° West 403 464 32,000  Level Minneapolis Center
Sat 09:35:49 AM 44.1931 -90.3025 301° West 400 460 32,000 -356 Level Minneapolis Center
Sat 09:36:51 AM 44.2817 -90.4336 313° West 404 465 31,200 -878 Descending Minneapolis Center
Sat 09:37:52 AM 44.3692 -90.5306 322° Northwest 402 463 30,200 -585 Descending Minneapolis Center
Sat 09:38:54 AM 44.4667 -90.6064 331° Northwest 399 459 30,000 -98 Descending Minneapolis Center
Sat 09:39:55 AM 44.5839 -90.6597 342° North 390 449 30,000  Level Minneapolis Center
Sat 09:40:57 AM 44.6878 -90.7047 343° North 393 452 30,000  Level Minneapolis Center
Sat 09:41:58 AM 44.7897 -90.7575 340° North 391 450 30,000 -393 Level Minneapolis Center
Sat 09:42:59 AM 44.8928 -90.8061 342° North 389 448 29,200 -878 Descending Minneapolis Center
Sat 09:44:01 AM 44.9603 -90.9078 313° West 382 440 28,200 -1,220 Descending Minneapolis Center
Sat 09:45:02 AM 44.9736 -91.0539 277° West 381 438 26,700 -1,805 Descending Minneapolis Center
Sat 09:46:04 AM 44.9964 -91.1892 283° West 367 422 24,500 -2,146 Descending Minneapolis Center
Sat 09:47:05 AM 45.0344 -91.3142 293° West 351 404 22,300 -2,152 Descending Minneapolis Center
Sat 09:49:08 AM 45.0989 -91.6019 288° West 354 407 17,900 -1,859 Descending Minneapolis Center
Sat 09:50:09 AM 45.0906 -91.7347 265° West 338 389 16,600 -1,512 Descending Minneapolis Center
Sat 09:51:11 AM 45.0794 -91.8747 264° West 337 388 14,800 -1,463 Descending Minneapolis Center
Sat 09:52:12 AM 45.0714 -91.9908 264° West 324 373 13,600 -1,180 Descending Minneapolis Center
Sat 09:53:13 AM 45.0622 -92.1167 264° West 324 373 12,400 -1,171 Descending Minneapolis Center
Sat 09:54:15 AM 45.0525 -92.2381 264° West 314 361 11,200 -634 Descending Minneapolis Center
Sat 09:55:16 AM 45.0392 -92.3569 261° West 308 354 11,100 -49 Descending Minneapolis Center
Sat 09:56:17 AM 45.0203 -92.4711 257° West 302 348 11,100 -49 Level Minneapolis Center
Sat 09:57:19 AM 44.9981 -92.6108 257° West 304 350 11,000 -49 Descending Minneapolis Center
Sat 09:58:20 AM 44.9789 -92.7258 257° West 302 348 11,000  Level Minneapolis Center
Sat 09:59:22 AM 44.9600 -92.8422 257° West 305 351 11,000 -634 Level Minneapolis Center
Sat 10:00:23 AM 44.9428 -92.9478 257° West 281 323 9,700 -1,415 Descending Minneapolis Center
Sat 10:01:25 AM 44.9264 -93.0503 257° West 272 313 8,100 -878 Descending Minneapolis Center
Sat 10:02:26 AM 44.9636 -93.1433 300° West 283 326 7,900 -541 Descending Minneapolis Center
Sat 10:03:27 AM 45.0119 -93.2328 307° West 289 333 7,000 -1,366 Descending Minneapolis Center
Sat 10:04:29 AM 45.0697 -93.3342 309° West 277 319 5,100 -1,512 Descending Minneapolis Center
Sat 10:05:30 AM 45.0767 -93.4267 276° West 243 280 3,900 -585 Descending Minneapolis Center
Sat 10:06:32 AM 45.0661 -93.4939 257° West 174 200 3,900 -244 Level Minneapolis Center
Sat 10:07:33 AM 45.0250 -93.5031 189° South 153 176 3,400 -488 Descending Minneapolis Center
Sat 10:08:35 AM 44.9922 -93.4542 133° Southeast 169 194 2,900 -195 Descending Minneapolis Center
Sat 10:09:36 AM 44.9683 -93.3917 118° Southeast 181 208 3,000 -98 Climbing Minneapolis Center
Sat 10:10:37 AM 44.9428 -93.3344 122° Southeast 175 201 2,700 -488 Descending Minneapolis Center
Sat 10:11:39 AM 44.9233 -93.2900 122° Southeast 136 157 2,000 -780 Descending Minneapolis Center
Sat 10:12:40 AM 44.9000 -93.2375 122° Southeast 131 151 1,100 -885 Descending Minneapolis Center

Login

Don't have an account? Register now (free) for customized features, flight alerts, and more!